Time;durP1;ratioP1;P1;durP2;ratioP2;P2;SDS_P1;SDS_P2;PMS_P1;PMS_P2;Temp;Humidity;BMP_temperature;BMP_pressure;BME280_temperature;BME280_humidity;BME280_pressure;Samples;Min_cycle;Max_cycle;Signal;HPM_P1;HPM_P2
2024/03/15 05:30:35;;;;;;;0.10;0.10;;;13.60;87.70;;;;;;5694023;24;21232;-76
2024/03/15 05:33:00;;;;;;;0.10;0.10;;;13.60;87.70;;;;;;4856311;29;20042;-75
2024/03/15 05:35:26;;;;;;;0.10;0.10;;;13.60;87.70;;;;;;4864858;29;20034;-75
2024/03/15 05:37:52;;;;;;;0.10;0.10;;;13.70;87.80;;;;;;4865302;29;20034;-76
2024/03/15 05:40:18;;;;;;;0.10;0.10;;;13.60;87.80;;;;;;4864839;29;20020;-75
2024/03/15 05:42:44;;;;;;;0.10;0.10;;;13.60;87.70;;;;;;4865003;29;20029;-75
2024/03/15 05:45:09;;;;;;;0.10;0.10;;;13.50;88.00;;;;;;4864901;29;20029;-75
2024/03/15 05:47:35;;;;;;;0.10;0.10;;;13.50;88.10;;;;;;4865009;29;20124;-76
2024/03/15 05:50:04;;;;;;;0.10;0.10;;;13.50;88.00;;;;;;4864849;29;20473;-75
2024/03/15 05:52:32;;;;;;;0.10;0.10;;;13.40;88.00;;;;;;4865247;29;20032;-77
2024/03/15 05:54:59;;;;;;;0.10;0.10;;;13.20;88.00;;;;;;4864700;29;20076;-76
2024/03/15 05:57:26;;;;;;;0.10;0.10;;;13.20;88.20;;;;;;4865156;29;20052;-78
2024/03/15 05:59:52;;;;;;;0.10;0.10;;;13.20;88.40;;;;;;4847051;29;20040;-76
2024/03/15 06:02:20;;;;;;;0.10;0.10;;;13.20;88.30;;;;;;4864045;29;20038;-76
2024/03/15 06:04:45;;;;;;;0.10;0.10;;;13.20;88.40;;;;;;4865115;29;20040;-75
2024/03/15 06:07:11;;;;;;;0.10;0.10;;;13.20;88.30;;;;;;4863908;29;20737;-73
2024/03/15 06:09:38;;;;;;;0.13;0.13;;;13.20;88.30;;;;;;4847332;29;20037;-82
2024/03/15 06:12:05;;;;;;;0.10;0.10;;;13.20;88.30;;;;;;4848159;29;20078;-82
2024/03/15 06:14:30;;;;;;;0.10;0.10;;;13.30;88.10;;;;;;4864816;29;20427;-77
2024/03/15 06:16:56;;;;;;;0.10;0.10;;;13.30;88.00;;;;;;4864715;29;20154;-77
2024/03/15 06:19:22;;;;;;;0.10;0.10;;;13.30;87.90;;;;;;4844374;29;20123;-77
2024/03/15 06:21:49;;;;;;;0.10;0.10;;;13.40;87.80;;;;;;4837735;29;20158;-78
2024/03/15 06:24:19;;;;;;;0.10;0.10;;;13.50;87.70;;;;;;4847694;29;20056;-77
2024/03/15 06:26:47;;;;;;;0.10;0.10;;;13.50;87.70;;;;;;4847654;29;20036;-78
2024/03/15 06:29:16;;;;;;;0.10;0.10;;;13.60;87.50;;;;;;4846655;29;20026;-78
2024/03/15 06:31:44;;;;;;;0.10;0.10;;;13.60;87.50;;;;;;4846325;29;20411;-85
2024/03/15 06:34:10;;;;;;;0.10;0.10;;;13.60;87.30;;;;;;4842194;29;20034;-85
2024/03/15 06:36:44;;;;;;;0.10;0.10;;;13.60;87.30;;;;;;4847634;29;20121;-81
2024/03/15 06:40:19;;;;;;;0.10;0.10;;;13.60;87.40;;;;;;4862585;29;20030;-81
2024/03/15 06:45:12;;;;;;;0.10;0.10;;;13.70;87.30;;;;;;4772490;30;20103;-80
2024/03/15 06:47:40;;;;;;;0.10;0.10;;;13.60;87.40;;;;;;4834589;29;20049;-86
2024/03/15 06:50:20;;;;;;;0.10;0.10;;;13.70;87.40;;;;;;4847838;29;20041;-79
2024/03/15 06:52:46;;;;;;;0.10;0.10;;;13.50;87.70;;;;;;4847414;29;20062;-80
2024/03/15 06:55:12;;;;;;;0.10;0.10;;;13.50;87.90;;;;;;4847257;29;20398;-79
2024/03/15 06:57:39;;;;;;;0.10;0.10;;;13.50;87.90;;;;;;4863868;29;20025;-79
2024/03/15 07:00:09;;;;;;;0.10;0.10;;;13.60;87.90;;;;;;4864043;29;20121;-79
2024/03/15 07:02:41;;;;;;;0.13;0.13;;;13.60;88.10;;;;;;4843325;29;20065;-79
2024/03/15 07:05:08;;;;;;;0.10;0.10;;;13.60;87.90;;;;;;4846324;29;20041;-79
2024/03/15 07:07:37;;;;;;;0.10;0.10;;;13.70;87.70;;;;;;4842267;29;20038;-79
2024/03/15 07:10:04;;;;;;;0.10;0.10;;;13.80;87.60;;;;;;4855520;29;20398;-78
2024/03/15 07:12:30;;;;;;;0.10;0.10;;;13.90;87.70;;;;;;4859574;29;20486;-79
2024/03/15 07:14:58;;;;;;;0.10;0.10;;;13.90;87.40;;;;;;4849546;29;20548;-79
2024/03/15 07:17:24;;;;;;;0.10;0.10;;;13.80;87.30;;;;;;4847057;29;20040;-78
2024/03/15 07:19:50;;;;;;;0.10;0.10;;;14.00;87.30;;;;;;4846580;29;20029;-78
2024/03/15 07:22:19;;;;;;;0.15;0.15;;;14.10;86.80;;;;;;4846542;29;20394;-78
2024/03/15 07:24:50;;;;;;;0.10;0.10;;;14.20;86.80;;;;;;4861815;29;20034;-79
2024/03/15 07:27:16;;;;;;;0.10;0.10;;;14.20;86.60;;;;;;4862784;29;20037;-79
2024/03/15 07:29:42;;;;;;;0.10;0.10;;;14.30;86.60;;;;;;4846410;29;20033;-78
2024/03/15 07:32:08;;;;;;;0.10;0.10;;;14.30;86.50;;;;;;4844314;29;20038;-78
2024/03/15 07:34:34;;;;;;;0.10;0.10;;;14.30;86.30;;;;;;4846769;29;20036;-79
2024/03/15 07:37:01;;;;;;;0.10;0.10;;;14.30;86.40;;;;;;4863121;29;20107;-78
2024/03/15 07:39:29;;;;;;;0.10;0.10;;;14.20;86.60;;;;;;4855843;29;20034;-78
2024/03/15 07:42:01;;;;;;;0.10;0.10;;;14.10;86.70;;;;;;4843474;29;20062;-79
2024/03/15 07:44:32;;;;;;;0.10;0.10;;;14.20;86.70;;;;;;4845339;29;20044;-92
2024/03/15 07:46:58;;;;;;;0.10;0.10;;;14.20;86.70;;;;;;4828893;29;20038;-78
2024/03/15 07:49:24;;;;;;;0.10;0.10;;;14.30;86.60;;;;;;4845185;29;20034;-79
2024/03/15 07:51:51;;;;;;;0.20;0.20;;;14.50;86.10;;;;;;4845032;29;20110;-78
2024/03/15 07:54:23;;;;;;;0.10;0.10;;;14.60;85.90;;;;;;4835497;29;20036;-78
2024/03/15 07:56:49;;;;;;;0.00;0.00;;;14.70;85.90;;;;;;4849440;29;20034;-78
2024/03/15 07:59:15;;;;;;;0.10;0.10;;;14.70;85.90;;;;;;4863213;29;20057;-78
2024/03/15 08:01:41;;;;;;;0.10;0.10;;;14.70;85.70;;;;;;4843526;29;20078;-78
2024/03/15 08:04:08;;;;;;;0.10;0.10;;;14.80;85.50;;;;;;4845661;29;20026;-79
2024/03/15 08:06:38;;;;;;;0.10;0.10;;;14.80;84.60;;;;;;4862805;29;20664;-79
2024/03/15 08:09:04;;;;;;;0.10;0.10;;;14.80;84.90;;;;;;4863385;29;20025;-79
2024/03/15 08:11:33;;;;;;;0.10;0.10;;;14.90;84.80;;;;;;4863358;29;20033;-79
2024/03/15 08:14:02;;;;;;;0.10;0.10;;;15.00;84.70;;;;;;4863311;29;20482;-79
2024/03/15 08:16:33;;;;;;;0.10;0.10;;;15.20;84.10;;;;;;4845834;29;20041;-79
2024/03/15 08:19:00;;;;;;;0.10;0.10;;;15.20;83.70;;;;;;4847083;29;20086;-79
2024/03/15 08:21:26;;;;;;;0.10;0.10;;;15.30;83.70;;;;;;4862188;29;20038;-79
2024/03/15 08:23:52;;;;;;;0.10;0.10;;;15.20;83.70;;;;;;4856254;29;20068;-80
2024/03/15 08:26:20;;;;;;;0.10;0.10;;;15.20;83.60;;;;;;4862184;29;20109;-80
2024/03/15 08:28:49;;;;;;;0.10;0.10;;;15.30;83.40;;;;;;4855228;29;20116;-79
2024/03/15 08:31:17;;;;;;;0.10;0.10;;;15.30;83.60;;;;;;4847959;29;20081;-80
2024/03/15 08:33:47;;;;;;;0.10;0.10;;;15.30;83.40;;;;;;4866503;29;20085;-80
2024/03/15 08:36:13;;;;;;;0.10;0.10;;;15.20;83.00;;;;;;4848171;29;20090;-80
2024/03/15 08:38:39;;;;;;;0.10;0.10;;;15.30;83.00;;;;;;4865496;29;20029;-80
2024/03/15 08:41:06;;;;;;;0.10;0.10;;;15.30;83.00;;;;;;4866211;29;20040;-81
2024/03/15 08:43:32;;;;;;;0.10;0.10;;;15.30;82.80;;;;;;4848020;29;20037;-79
2024/03/15 08:45:58;;;;;;;0.10;0.10;;;15.30;82.40;;;;;;4831569;29;20394;-79
2024/03/15 08:48:24;;;;;;;0.10;0.10;;;15.20;82.60;;;;;;4843775;29;20030;-79
2024/03/15 08:50:50;;;;;;;0.10;0.10;;;15.20;82.50;;;;;;4848771;29;20121;-79
2024/03/15 08:53:18;;;;;;;0.10;0.10;;;15.40;82.50;;;;;;4855103;29;20032;-79
2024/03/15 08:55:44;;;;;;;0.10;0.10;;;15.60;82.40;;;;;;4865755;29;20107;-80
2024/03/15 08:58:11;;;;;;;0.10;0.10;;;15.90;82.00;;;;;;4849083;29;20580;-80
2024/03/15 09:00:39;;;;;;;0.10;0.10;;;16.10;80.40;;;;;;4851777;29;20034;-80
2024/03/15 09:03:09;;;;;;;0.10;0.10;;;16.20;80.20;;;;;;4863276;29;20479;-79
2024/03/15 09:05:38;;;;;;;0.10;0.10;;;16.30;80.10;;;;;;4853223;29;20646;-75
2024/03/15 09:08:10;;;;;;;0.10;0.10;;;16.60;79.50;;;;;;4849123;29;20730;-84
2024/03/15 09:10:38;;;;;;;0.20;0.20;;;16.90;79.20;;;;;;4851583;29;20033;-80
2024/03/15 09:13:04;;;;;;;0.40;0.40;;;17.10;77.90;;;;;;4860221;29;20085;-80
2024/03/15 09:15:30;;;;;;;0.40;0.40;;;17.50;77.20;;;;;;4841902;29;20933;-81
2024/03/15 09:17:59;;;;;;;0.20;0.20;;;18.10;77.10;;;;;;4863441;29;20090;-81
2024/03/15 09:22:56;;;;;;;0.10;0.10;;;18.20;73.60;;;;;;4859633;29;20045;-81
2024/03/15 09:25:26;;;;;;;0.20;0.20;;;18.00;73.80;;;;;;4860519;29;20478;-82
2024/03/15 09:27:52;;;;;;;0.10;0.10;;;17.80;73.60;;;;;;4845142;29;20026;-81
2024/03/15 09:30:36;;;;;;;0.00;0.00;;;17.80;73.60;;;;;;4846235;29;20144;-84
2024/03/15 09:33:03;;;;;;;;;;;17.50;73.60;;;;;;4863116;29;20078;-81
2024/03/15 09:35:31;;;;;;;0.10;0.10;;;17.30;73.60;;;;;;4862687;29;19908;-81
2024/03/15 09:37:56;;;;;;;0.10;0.10;;;16.90;74.00;;;;;;4844222;29;20045;-81
2024/03/15 09:40:28;;;;;;;0.10;0.10;;;16.80;74.70;;;;;;4863076;29;20109;-82
2024/03/15 09:42:54;;;;;;;0.10;0.10;;;16.70;75.10;;;;;;4864207;29;20094;-81
2024/03/15 09:45:26;;;;;;;0.10;0.10;;;16.80;75.30;;;;;;4863877;29;20037;-81
2024/03/15 09:47:53;;;;;;;0.10;0.10;;;16.60;74.70;;;;;;4863631;29;20038;-82
2024/03/15 09:50:21;;;;;;;0.10;0.10;;;16.40;75.30;;;;;;4840323;29;20021;-80
2024/03/15 09:52:49;;;;;;;0.03;0.03;;;16.30;75.20;;;;;;4841047;29;20022;-81
2024/03/15 09:55:19;;;;;;;0.05;0.05;;;16.20;75.80;;;;;;4847748;29;20786;-80
2024/03/15 09:57:46;;;;;;;0.10;0.10;;;16.00;76.30;;;;;;4858893;29;20060;-80
2024/03/15 10:00:16;;;;;;;0.10;0.10;;;16.00;76.60;;;;;;4848552;29;20112;-80
2024/03/15 10:02:44;;;;;;;0.10;0.10;;;16.20;76.70;;;;;;4864046;29;20639;-80
2024/03/15 10:05:12;;;;;;;0.20;0.20;;;16.50;76.00;;;;;;4858131;29;20044;-80
2024/03/15 10:07:38;;;;;;;0.10;0.10;;;16.80;75.40;;;;;;4848494;29;20045;-80
2024/03/15 10:10:11;;;;;;;0.20;0.20;;;16.80;74.70;;;;;;4859183;29;20128;-81
2024/03/15 10:12:46;;;;;;;0.57;0.57;;;16.90;74.60;;;;;;4849265;29;20033;-81
2024/03/15 10:15:14;;;;;;;0.10;0.10;;;17.50;74.20;;;;;;4860517;29;20066;-80
2024/03/15 10:17:40;;;;;;;0.10;0.10;;;17.30;73.10;;;;;;4863634;29;20030;-81
2024/03/15 10:20:17;;;;;;;0.10;0.10;;;17.10;73.40;;;;;;4857484;29;20804;-80
2024/03/15 10:22:45;;;;;;;0.10;0.10;;;17.20;73.70;;;;;;4847249;29;20123;-81
2024/03/15 10:25:18;;;;;;;0.20;0.20;;;16.90;73.60;;;;;;4863182;29;20551;-80
2024/03/15 10:27:53;;;;;;;0.20;0.20;;;17.10;73.90;;;;;;4841798;29;20451;-80
2024/03/15 10:30:23;;;;;;;0.20;0.20;;;17.20;73.40;;;;;;4846584;29;20470;-80
2024/03/15 10:32:50;;;;;;;0.20;0.20;;;17.30;73.60;;;;;;4847139;29;20033;-81
2024/03/15 10:35:19;;;;;;;0.10;0.10;;;17.50;72.70;;;;;;4863321;29;20034;-81
2024/03/15 10:37:45;;;;;;;0.10;0.10;;;17.80;72.50;;;;;;4844454;29;20033;-81
2024/03/15 10:40:16;;;;;;;0.10;0.10;;;17.70;71.00;;;;;;4844087;29;20026;-80
2024/03/15 10:42:43;;;;;;;0.10;0.10;;;17.60;71.30;;;;;;4862219;29;20041;-80
2024/03/15 10:45:12;;;;;;;0.10;0.10;;;17.50;71.30;;;;;;4861681;29;20029;-80
2024/03/15 10:47:39;;;;;;;0.10;0.10;;;17.40;70.80;;;;;;4846811;29;20463;-80
2024/03/15 10:50:21;;;;;;;0.10;0.10;;;17.40;70.80;;;;;;4845833;29;20509;-81
2024/03/15 10:52:52;;;;;;;0.10;0.10;;;17.60;71.50;;;;;;4861938;29;20052;-80
2024/03/15 10:55:25;;;;;;;0.10;0.10;;;17.50;71.50;;;;;;4859689;29;20035;-81
2024/03/15 10:57:54;;;;;;;0.10;0.10;;;17.70;72.30;;;;;;4840464;29;20123;-80
2024/03/15 11:00:27;;;;;;;0.10;0.10;;;17.80;71.60;;;;;;4862496;29;20021;-80
2024/03/15 11:02:56;;;;;;;;;;;17.80;71.40;;;;;;4842562;29;20058;-80
2024/03/15 11:05:25;;;;;;;0.10;0.10;;;18.00;71.30;;;;;;4863465;29;19915;-80
2024/03/15 11:08:13;;;;;;;0.10;0.10;;;18.10;70.50;;;;;;4862638;29;20462;-81
2024/03/15 11:10:39;;;;;;;0.10;0.10;;;18.00;68.90;;;;;;4862345;29;20084;-80
2024/03/15 11:13:09;;;;;;;0.10;0.10;;;17.90;70.10;;;;;;4860872;29;20040;-77
2024/03/15 11:16:05;;;;;;;0.20;0.20;;;18.00;70.50;;;;;;4845909;29;20547;-81
2024/03/15 11:18:36;;;;;;;0.10;0.10;;;18.10;70.10;;;;;;4866965;29;20029;-83
2024/03/15 11:21:03;;;;;;;0.10;0.10;;;18.10;69.30;;;;;;4848269;29;20510;-74
2024/03/15 11:23:29;;;;;;;0.10;0.10;;;18.30;69.00;;;;;;4864815;29;20036;-76
2024/03/15 11:26:23;;;;;;;0.10;0.10;;;18.30;68.50;;;;;;4847824;29;20066;-80
2024/03/15 11:29:00;;;;;;;0.10;0.10;;;18.00;67.00;;;;;;4846738;29;20113;-81
2024/03/15 11:31:52;;;;;;;0.10;0.10;;;18.00;67.00;;;;;;4863612;29;20410;-89
2024/03/15 11:35:20;;;;;;;0.10;0.10;;;17.90;66.60;;;;;;4846639;29;20497;-86
2024/03/15 11:38:12;;;;;;;0.10;0.10;;;17.90;66.70;;;;;;4847322;29;20041;-83
2024/03/15 11:41:27;;;;;;;;;;;;;;;;;;;;;
2024/03/15 11:44:47;;;;;;;;;;;;;;;;;;;;;
2024/03/15 11:47:46;;;;;;;;;;;;;;;;;;;;;
2024/03/15 11:51:03;;;;;;;0.10;0.10;;;17.70;70.00;;;;;;4863584;29;20101;-84
2024/03/15 11:53:13;;;;;;;0.10;0.10;;;18.10;68.80;;;;;;4838191;29;20041;-80
2024/03/15 11:56:19;;;;;;;;;;;;;;;;;;;;;
2024/03/15 12:34:44;;;;;;;0.10;0.10;;;19.30;60.90;;;;;;5635105;23;20045;-87
2024/03/15 15:13:52;;;;;;;;;;;;;;;;;;;;;
2024/03/15 15:34:22;;;;;;;0.10;0.10;;;18.30;58.10;;;;;;4528859;31;20068;-80
2024/03/15 15:37:05;;;;;;;0.10;0.10;;;18.30;58.50;;;;;;5120312;27;20446;-78
2024/03/15 15:39:32;;;;;;;0.10;0.10;;;18.30;58.30;;;;;;5094057;28;20048;-80
2024/03/15 15:41:58;;;;;;;0.10;0.10;;;18.30;58.60;;;;;;5090523;28;20055;-80
2024/03/15 15:44:24;;;;;;;0.10;0.10;;;18.30;58.70;;;;;;5089751;28;20032;-79
2024/03/15 15:46:49;;;;;;;0.10;0.10;;;18.20;59.00;;;;;;5091523;28;20024;-78
2024/03/15 15:49:15;;;;;;;0.10;0.10;;;18.20;58.70;;;;;;5092678;28;20032;-80
2024/03/15 15:51:43;;;;;;;0.10;0.10;;;18.30;59.50;;;;;;5089887;28;20161;-78
2024/03/15 15:54:11;;;;;;;0.10;0.10;;;18.30;59.40;;;;;;5087226;28;20028;-77
2024/03/15 15:56:36;;;;;;;0.10;0.10;;;18.10;59.40;;;;;;5091581;28;20024;-78
2024/03/15 15:59:21;;;;;;;0.10;0.10;;;18.00;60.20;;;;;;5089701;28;20099;-81
2024/03/15 16:01:47;;;;;;;0.10;0.10;;;18.00;60.50;;;;;;5091370;28;20077;-78
2024/03/15 16:04:13;;;;;;;0.08;0.08;;;18.10;60.40;;;;;;5092452;28;20213;-77
2024/03/15 16:06:39;;;;;;;0.10;0.10;;;18.00;60.50;;;;;;5091616;28;20056;-78
2024/03/15 16:09:18;;;;;;;0.10;0.10;;;17.80;60.00;;;;;;5092435;28;20028;-77
2024/03/15 16:12:23;;;;;;;0.10;0.10;;;17.70;60.80;;;;;;5090215;28;20024;-82
2024/03/15 16:15:23;;;;;;;0.10;0.10;;;17.60;60.50;;;;;;5088599;28;20032;-81
2024/03/15 16:17:52;;;;;;;0.00;0.00;;;17.50;61.00;;;;;;5090618;28;20032;-80
2024/03/15 16:20:18;;;;;;;0.10;0.10;;;17.50;61.40;;;;;;5092416;28;20026;-81
2024/03/15 16:22:44;;;;;;;0.10;0.10;;;17.50;61.20;;;;;;5107424;28;20028;-81
2024/03/15 16:25:10;;;;;;;0.10;0.10;;;17.30;60.60;;;;;;5124360;28;20483;-81
2024/03/15 16:27:37;;;;;;;0.10;0.10;;;17.30;61.50;;;;;;5106605;28;20055;-81
2024/03/15 16:30:04;;;;;;;0.00;0.00;;;17.20;62.10;;;;;;5100694;28;20487;-82
2024/03/15 16:32:31;;;;;;;0.10;0.10;;;17.30;61.70;;;;;;5099626;28;20054;-83
2024/03/15 16:34:59;;;;;;;0.10;0.10;;;17.20;62.20;;;;;;5081913;28;20040;-83
2024/03/15 16:37:25;;;;;;;0.10;0.10;;;17.00;62.40;;;;;;5072379;28;20029;-79
2024/03/15 16:39:51;;;;;;;0.10;0.10;;;17.00;63.10;;;;;;5085942;28;20026;-78
2024/03/15 16:42:19;;;;;;;0.10;0.10;;;16.90;63.50;;;;;;5088818;28;20073;-79
2024/03/15 16:44:47;;;;;;;0.10;0.10;;;16.90;63.80;;;;;;5114477;28;20020;-79
2024/03/15 16:47:13;;;;;;;0.10;0.10;;;16.80;64.30;;;;;;5074364;28;20404;-79
2024/03/15 16:49:39;;;;;;;0.00;0.00;;;16.70;64.10;;;;;;5071213;28;20440;-79
2024/03/15 16:52:05;;;;;;;0.10;0.10;;;16.70;64.70;;;;;;5082423;28;20063;-79
2024/03/15 16:54:31;;;;;;;0.10;0.10;;;16.60;64.60;;;;;;5082857;28;20024;-78
2024/03/15 16:56:57;;;;;;;0.00;0.00;;;16.40;65.50;;;;;;5071158;28;20098;-82
2024/03/15 16:59:22;;;;;;;0.10;0.10;;;16.30;66.00;;;;;;5059098;28;20767;-81
2024/03/15 17:01:49;;;;;;;0.10;0.10;;;16.20;66.00;;;;;;5072936;28;20028;-81
2024/03/15 17:04:15;;;;;;;0.10;0.10;;;16.30;65.90;;;;;;5069549;28;20155;-81
2024/03/15 17:06:41;;;;;;;0.10;0.10;;;16.30;66.10;;;;;;5073315;28;20049;-80
2024/03/15 17:09:13;;;;;;;0.00;0.00;;;16.20;65.90;;;;;;5058042;28;20028;-81
2024/03/15 17:11:39;;;;;;;0.00;0.00;;;16.20;66.10;;;;;;5086784;28;20123;-81
2024/03/15 17:14:05;;;;;;;0.10;0.10;;;16.30;66.50;;;;;;5086825;28;20055;-81
2024/03/15 17:16:30;;;;;;;0.08;0.08;;;16.20;66.40;;;;;;5087879;28;20031;-83
2024/03/15 17:18:59;;;;;;;0.00;0.00;;;16.30;66.40;;;;;;5085684;28;20023;-82
2024/03/15 17:21:25;;;;;;;0.10;0.10;;;16.20;66.60;;;;;;5087212;28;20039;-82
2024/03/15 17:23:53;;;;;;;0.08;0.08;;;16.10;66.60;;;;;;5087617;28;20020;-81
2024/03/15 17:26:18;;;;;;;0.10;0.10;;;16.10;66.80;;;;;;5089068;28;20035;-82
2024/03/15 17:28:44;;;;;;;0.10;0.10;;;16.20;66.90;;;;;;5084241;28;21328;-82
2024/03/15 17:31:10;;;;;;;0.05;0.05;;;16.20;67.10;;;;;;5076669;28;20511;-82
2024/03/15 17:33:36;;;;;;;0.10;0.10;;;16.00;67.30;;;;;;5076725;28;20025;-80
2024/03/15 17:36:02;;;;;;;0.10;0.10;;;16.00;67.70;;;;;;5078328;28;20060;-81
2024/03/15 17:38:30;;;;;;;0.03;0.03;;;15.90;67.80;;;;;;5059608;28;20024;-83
2024/03/15 17:40:55;;;;;;;0.00;0.00;;;15.80;68.20;;;;;;5075421;28;20028;-82
2024/03/15 17:43:21;;;;;;;0.00;0.00;;;15.80;68.10;;;;;;5070833;28;20131;-83
2024/03/15 17:45:48;;;;;;;0.03;0.03;;;15.80;68.50;;;;;;5065645;28;20033;-81
2024/03/15 17:48:13;;;;;;;0.10;0.10;;;15.90;68.70;;;;;;5059072;28;20501;-89
2024/03/15 17:50:39;;;;;;;0.00;0.00;;;15.90;69.00;;;;;;5077922;28;20021;-83
2024/03/15 17:53:14;;;;;;;0.00;0.00;;;15.80;69.60;;;;;;5077930;28;20484;-77
2024/03/15 17:55:40;;;;;;;0.10;0.10;;;15.80;70.30;;;;;;5075102;28;20036;-82
2024/03/15 17:58:05;;;;;;;0.10;0.10;;;15.80;70.20;;;;;;5075642;28;20021;-80
2024/03/15 18:00:31;;;;;;;0.00;0.00;;;15.80;71.30;;;;;;5073301;28;20017;-78
2024/03/15 18:03:05;;;;;;;0.00;0.00;;;15.80;72.10;;;;;;5064228;28;20108;-81
2024/03/15 18:05:31;;;;;;;0.10;0.10;;;15.70;73.20;;;;;;5076394;28;20063;-79
2024/03/15 18:07:57;;;;;;;0.10;0.10;;;15.70;74.30;;;;;;5066772;28;20037;-79
2024/03/15 18:10:31;;;;;;;0.00;0.00;;;15.60;75.30;;;;;;5057501;28;20037;-83
2024/03/15 18:12:57;;;;;;;0.10;0.10;;;15.40;76.60;;;;;;5064446;28;20025;-78
2024/03/15 18:15:23;;;;;;;0.10;0.10;;;15.50;77.00;;;;;;5059092;28;20025;-80
2024/03/15 18:17:48;;;;;;;0.10;0.10;;;15.50;77.30;;;;;;5073669;28;20028;-79
2024/03/15 18:20:14;;;;;;;0.10;0.10;;;15.40;77.60;;;;;;5076920;28;20031;-80
2024/03/15 18:22:40;;;;;;;0.05;0.05;;;15.40;78.10;;;;;;5072454;28;20024;-79
2024/03/15 18:25:06;;;;;;;0.08;0.08;;;15.40;78.50;;;;;;5056206;28;20029;-77
2024/03/15 18:27:33;;;;;;;0.00;0.00;;;15.40;78.60;;;;;;5072632;28;20377;-78
2024/03/15 18:29:59;;;;;;;0.10;0.10;;;15.30;78.90;;;;;;5057102;28;20369;-79
2024/03/15 18:32:32;;;;;;;0.00;0.00;;;15.20;79.20;;;;;;5073110;28;20141;-80
2024/03/15 18:34:58;;;;;;;0.00;0.00;;;15.10;79.80;;;;;;5065987;28;20139;-79
2024/03/15 18:37:24;;;;;;;0.05;0.05;;;15.10;80.30;;;;;;5071996;28;20044;-77
2024/03/15 18:39:51;;;;;;;0.00;0.00;;;15.00;80.40;;;;;;5061342;28;20060;-78
2024/03/15 18:42:16;;;;;;;0.10;0.10;;;14.80;81.20;;;;;;5076398;28;20043;-78
2024/03/15 18:44:42;;;;;;;0.10;0.10;;;14.80;81.40;;;;;;5072910;28;20057;-78
2024/03/15 18:47:08;;;;;;;0.10;0.10;;;14.80;81.30;;;;;;5056859;28;20021;-79
2024/03/15 18:49:33;;;;;;;0.00;0.00;;;14.70;81.30;;;;;;5071962;28;20037;-83
2024/03/15 18:52:02;;;;;;;0.00;0.00;;;14.50;81.80;;;;;;5056671;28;20393;-81
2024/03/15 18:54:59;;;;;;;0.05;0.05;;;14.50;81.90;;;;;;5072038;28;20039;-84
2024/03/15 18:57:29;;;;;;;0.00;0.00;;;14.40;82.00;;;;;;5056770;28;20520;-78
2024/03/15 19:03:01;;;;;;;;;;;14.30;81.90;;;;;;5011808;28;20033;-77
2024/03/15 19:05:27;;;;;;;0.10;0.10;;;14.30;81.90;;;;;;5000966;28;19931;-76
2024/03/15 19:07:53;;;;;;;0.05;0.05;;;14.30;81.80;;;;;;5047623;28;20020;-79
2024/03/15 19:10:20;;;;;;;0.00;0.00;;;14.30;81.90;;;;;;5083805;28;20020;-76
2024/03/15 19:12:46;;;;;;;0.10;0.10;;;14.30;81.70;;;;;;5084678;28;20012;-77
2024/03/15 19:15:12;;;;;;;0.10;0.10;;;14.20;81.80;;;;;;5080171;28;20089;-77
2024/03/15 19:17:38;;;;;;;0.10;0.10;;;14.20;81.70;;;;;;5085166;28;20012;-75
2024/03/15 19:20:13;;;;;;;0.10;0.10;;;14.20;81.40;;;;;;5086348;28;20099;-77
2024/03/15 19:22:39;;;;;;;0.10;0.10;;;14.10;81.40;;;;;;5078706;28;20021;-76
2024/03/15 19:25:05;;;;;;;0.00;0.00;;;14.20;81.10;;;;;;5080895;28;20028;-76
2024/03/15 19:27:32;;;;;;;0.00;0.00;;;14.10;80.90;;;;;;5089082;28;20024;-82
2024/03/15 19:29:58;;;;;;;0.10;0.10;;;14.00;81.00;;;;;;5088553;28;20129;-85
2024/03/15 19:32:27;;;;;;;0.10;0.10;;;13.90;81.20;;;;;;5082809;28;20024;-85
2024/03/15 19:34:56;;;;;;;0.00;0.00;;;13.80;81.60;;;;;;5084644;28;20042;-79
2024/03/15 19:37:22;;;;;;;0.10;0.10;;;13.80;81.30;;;;;;5084698;28;20021;-80
2024/03/15 19:39:49;;;;;;;0.10;0.10;;;13.80;81.20;;;;;;5087874;28;20470;-81
2024/03/15 19:42:15;;;;;;;0.00;0.00;;;13.70;81.10;;;;;;5085544;28;20391;-79
2024/03/15 19:44:41;;;;;;;0.10;0.10;;;13.60;80.80;;;;;;5080614;28;20099;-85
2024/03/15 19:47:10;;;;;;;0.08;0.08;;;13.60;81.30;;;;;;5085915;28;20017;-87
2024/03/15 19:49:36;;;;;;;0.10;0.10;;;13.50;80.90;;;;;;5080960;28;20036;-78
2024/03/15 19:52:02;;;;;;;0.10;0.10;;;13.60;81.00;;;;;;5079903;28;20057;-79
2024/03/15 19:54:27;;;;;;;0.10;0.10;;;13.60;80.90;;;;;;5070882;28;20107;-79
2024/03/15 19:56:53;;;;;;;0.00;0.00;;;13.60;80.80;;;;;;5073241;28;20035;-78
2024/03/15 19:59:19;;;;;;;0.10;0.10;;;13.60;80.60;;;;;;5074352;28;20496;-82
2024/03/15 20:01:44;;;;;;;0.10;0.10;;;13.60;80.40;;;;;;5074250;28;20543;-78
2024/03/15 20:04:10;;;;;;;0.10;0.10;;;13.60;80.30;;;;;;5070256;28;20062;-81
2024/03/15 20:06:36;;;;;;;0.10;0.10;;;13.60;80.20;;;;;;5068210;28;20396;-82
2024/03/15 20:09:01;;;;;;;0.10;0.10;;;13.50;80.30;;;;;;5071382;28;20403;-81
2024/03/15 20:11:27;;;;;;;0.10;0.10;;;13.50;80.20;;;;;;5074043;28;20039;-87
2024/03/15 20:13:53;;;;;;;0.10;0.10;;;13.50;80.30;;;;;;5075108;28;20025;-84
2024/03/15 20:16:18;;;;;;;0.08;0.08;;;13.50;80.10;;;;;;5074041;28;20134;-90
2024/03/15 20:18:45;;;;;;;0.00;0.00;;;13.40;79.90;;;;;;5075047;28;20052;-82
2024/03/15 20:21:11;;;;;;;0.10;0.10;;;13.30;80.20;;;;;;5073908;28;20435;-83
2024/03/15 20:23:36;;;;;;;0.10;0.10;;;13.30;80.20;;;;;;5077353;28;20069;-83
2024/03/15 20:26:02;;;;;;;0.10;0.10;;;13.30;80.00;;;;;;5077384;28;20024;-81
2024/03/15 20:28:29;;;;;;;0.10;0.10;;;13.30;80.20;;;;;;5078606;28;20033;-81
2024/03/15 20:30:57;;;;;;;0.10;0.10;;;13.20;80.10;;;;;;5076272;28;20048;-81
2024/03/15 20:33:23;;;;;;;0.10;0.10;;;13.20;79.90;;;;;;5073984;28;20028;-82
2024/03/15 20:35:49;;;;;;;0.10;0.10;;;13.20;80.00;;;;;;5084618;28;20459;-83
2024/03/15 20:38:16;;;;;;;0.00;0.00;;;13.10;79.90;;;;;;5071778;28;20681;-82
2024/03/15 20:40:45;;;;;;;0.10;0.10;;;13.10;79.60;;;;;;5075459;28;20040;-82
2024/03/15 20:43:11;;;;;;;0.10;0.10;;;13.10;79.40;;;;;;5076396;28;20032;-82
2024/03/15 20:45:37;;;;;;;0.10;0.10;;;13.10;79.20;;;;;;5069998;28;20116;-82
2024/03/15 20:48:03;;;;;;;0.10;0.10;;;13.00;79.20;;;;;;5074598;28;20029;-82
2024/03/15 20:50:28;;;;;;;0.10;0.10;;;13.00;79.00;;;;;;5066417;28;20377;-80
2024/03/15 20:52:54;;;;;;;0.10;0.10;;;13.00;79.10;;;;;;5075299;28;20412;-78
2024/03/15 20:56:57;;;;;;;0.00;0.00;;;13.00;78.80;;;;;;5071188;28;20560;-83
2024/03/15 20:59:04;;;;;;;0.10;0.10;;;12.90;79.00;;;;;;5023708;28;20034;-78
2024/03/15 21:01:30;;;;;;;0.10;0.10;;;12.90;78.50;;;;;;5074011;28;20081;-76
2024/03/15 21:04:33;;;;;;;0.10;0.10;;;12.90;78.60;;;;;;5072635;28;20024;-87
2024/03/15 21:06:59;;;;;;;0.10;0.10;;;12.90;78.80;;;;;;5069647;28;20053;-80
2024/03/15 21:09:24;;;;;;;0.10;0.10;;;12.90;78.60;;;;;;5070497;28;20040;-79
2024/03/15 21:11:50;;;;;;;0.10;0.10;;;12.80;78.60;;;;;;5070315;28;20033;-79
2024/03/15 21:14:16;;;;;;;0.10;0.10;;;12.80;78.40;;;;;;5076912;28;20135;-79
2024/03/15 21:16:42;;;;;;;0.00;0.00;;;12.80;78.50;;;;;;5081445;28;20024;-79
2024/03/15 21:19:08;;;;;;;0.10;0.10;;;12.80;78.50;;;;;;5070858;28;20025;-79
2024/03/15 21:21:36;;;;;;;0.00;0.00;;;12.80;78.40;;;;;;5078736;28;20438;-79
2024/03/15 21:24:04;;;;;;;0.03;0.03;;;12.80;78.50;;;;;;5072895;28;20032;-80
2024/03/15 21:26:31;;;;;;;0.00;0.00;;;12.80;78.20;;;;;;5077987;28;20031;-78
2024/03/15 21:28:57;;;;;;;0.10;0.10;;;12.70;78.30;;;;;;5079733;28;20064;-78
2024/03/15 21:31:23;;;;;;;0.10;0.10;;;12.60;78.40;;;;;;5079450;28;20024;-79
2024/03/15 21:33:51;;;;;;;0.10;0.10;;;12.60;78.30;;;;;;5078135;28;20024;-78
2024/03/15 21:36:18;;;;;;;0.10;0.10;;;12.60;78.40;;;;;;5076558;28;20044;-78
2024/03/15 21:38:44;;;;;;;0.00;0.00;;;12.60;78.10;;;;;;5074499;28;20150;-78
2024/03/15 21:41:12;;;;;;;0.10;0.10;;;12.60;77.80;;;;;;5078103;28;20028;-78
2024/03/15 21:43:40;;;;;;;0.10;0.10;;;12.60;78.20;;;;;;5076702;28;20023;-78
2024/03/15 21:46:08;;;;;;;0.10;0.10;;;12.60;78.00;;;;;;5085417;28;20024;-78
2024/03/15 21:48:36;;;;;;;0.03;0.03;;;12.50;77.80;;;;;;5084001;28;20176;-78
2024/03/15 21:51:02;;;;;;;0.10;0.10;;;12.50;78.10;;;;;;5086536;28;20028;-78
2024/03/15 21:53:28;;;;;;;0.08;0.08;;;12.50;78.10;;;;;;5080778;28;20021;-78
2024/03/15 21:55:54;;;;;;;0.10;0.10;;;12.40;77.90;;;;;;5075671;28;20541;-79
2024/03/15 21:58:19;;;;;;;0.10;0.10;;;12.40;77.90;;;;;;5075219;28;20064;-78
2024/03/15 22:00:46;;;;;;;0.10;0.10;;;12.40;78.10;;;;;;5075426;28;20035;-78
2024/03/15 22:03:13;;;;;;;0.10;0.10;;;12.40;77.70;;;;;;5073495;28;20027;-78
2024/03/15 22:05:38;;;;;;;0.10;0.10;;;12.30;77.90;;;;;;5074667;28;20024;-78
2024/03/15 22:08:05;;;;;;;0.10;0.10;;;12.30;78.00;;;;;;5073011;28;20107;-78
2024/03/15 22:10:31;;;;;;;0.00;0.00;;;12.30;77.90;;;;;;5075292;28;20028;-78
2024/03/15 22:12:58;;;;;;;0.10;0.10;;;12.40;77.80;;;;;;5076385;28;20475;-77